sensor_id;sensor_type;location;lat;lon;timestamp;P1;durP1;ratioP1;P2;durP2;ratioP2
71351;SDS011;59159;51.652;4.864;2023-04-25T00:02:21;5.05;;;1.20;;
71351;SDS011;59159;51.652;4.864;2023-04-25T00:04:47;4.22;;;1.00;;
71351;SDS011;59159;51.652;4.864;2023-04-25T00:07:16;5.83;;;1.27;;
71351;SDS011;59159;51.652;4.864;2023-04-25T00:09:42;3.42;;;1.02;;
71351;SDS011;59159;51.652;4.864;2023-04-25T00:12:09;4.28;;;1.00;;
71351;SDS011;59159;51.652;4.864;2023-04-25T00:14:35;5.10;;;1.27;;
71351;SDS011;59159;51.652;4.864;2023-04-25T00:17:01;4.63;;;1.30;;
71351;SDS011;59159;51.652;4.864;2023-04-25T00:19:27;5.93;;;1.17;;
71351;SDS011;59159;51.652;4.864;2023-04-25T00:21:54;4.10;;;1.00;;
71351;SDS011;59159;51.652;4.864;2023-04-25T00:24:20;4.83;;;1.07;;
71351;SDS011;59159;51.652;4.864;2023-04-25T00:26:48;6.50;;;1.05;;
71351;SDS011;59159;51.652;4.864;2023-04-25T00:29:14;4.35;;;1.00;;
71351;SDS011;59159;51.652;4.864;2023-04-25T00:31:40;5.40;;;1.20;;
71351;SDS011;59159;51.652;4.864;2023-04-25T00:34:06;4.82;;;1.00;;
71351;SDS011;59159;51.652;4.864;2023-04-25T00:36:33;3.53;;;1.00;;
71351;SDS011;59159;51.652;4.864;2023-04-25T00:38:59;4.22;;;1.10;;
71351;SDS011;59159;51.652;4.864;2023-04-25T00:41:26;3.70;;;1.10;;
71351;SDS011;59159;51.652;4.864;2023-04-25T00:43:53;4.05;;;1.10;;
71351;SDS011;59159;51.652;4.864;2023-04-25T00:46:20;5.22;;;1.13;;
71351;SDS011;59159;51.652;4.864;2023-04-25T00:48:46;4.80;;;1.00;;
71351;SDS011;59159;51.652;4.864;2023-04-25T00:51:19;5.18;;;1.25;;
71351;SDS011;59159;51.652;4.864;2023-04-25T00:53:46;5.28;;;1.02;;
71351;SDS011;59159;51.652;4.864;2023-04-25T00:56:13;4.73;;;1.60;;
71351;SDS011;59159;51.652;4.864;2023-04-25T00:58:39;4.25;;;0.93;;
71351;SDS011;59159;51.652;4.864;2023-04-25T01:01:05;4.93;;;1.30;;
71351;SDS011;59159;51.652;4.864;2023-04-25T01:03:32;5.07;;;1.70;;
71351;SDS011;59159;51.652;4.864;2023-04-25T01:06:00;5.17;;;1.60;;
71351;SDS011;59159;51.652;4.864;2023-04-25T01:08:27;6.18;;;1.13;;
71351;SDS011;59159;51.652;4.864;2023-04-25T01:10:53;3.78;;;0.90;;
71351;SDS011;59159;51.652;4.864;2023-04-25T01:13:19;4.13;;;1.03;;
71351;SDS011;59159;51.652;4.864;2023-04-25T01:15:45;4.70;;;1.13;;
71351;SDS011;59159;51.652;4.864;2023-04-25T01:18:11;4.90;;;1.13;;
71351;SDS011;59159;51.652;4.864;2023-04-25T01:20:37;4.73;;;1.30;;
71351;SDS011;59159;51.652;4.864;2023-04-25T01:23:04;5.10;;;1.30;;
71351;SDS011;59159;51.652;4.864;2023-04-25T01:25:30;6.32;;;1.15;;
71351;SDS011;59159;51.652;4.864;2023-04-25T01:27:57;4.35;;;1.20;;
71351;SDS011;59159;51.652;4.864;2023-04-25T01:30:23;4.80;;;1.03;;
71351;SDS011;59159;51.652;4.864;2023-04-25T01:32:50;4.53;;;1.00;;
71351;SDS011;59159;51.652;4.864;2023-04-25T01:35:16;5.60;;;1.20;;
71351;SDS011;59159;51.652;4.864;2023-04-25T01:37:42;4.40;;;1.20;;
71351;SDS011;59159;51.652;4.864;2023-04-25T01:40:09;4.30;;;1.00;;
71351;SDS011;59159;51.652;4.864;2023-04-25T01:42:36;5.53;;;1.30;;
71351;SDS011;59159;51.652;4.864;2023-04-25T01:45:03;4.23;;;0.87;;
71351;SDS011;59159;51.652;4.864;2023-04-25T01:47:29;5.18;;;1.40;;
71351;SDS011;59159;51.652;4.864;2023-04-25T01:49:55;4.05;;;1.08;;
71351;SDS011;59159;51.652;4.864;2023-04-25T01:52:21;6.00;;;1.10;;
71351;SDS011;59159;51.652;4.864;2023-04-25T01:54:47;5.10;;;1.30;;
71351;SDS011;59159;51.652;4.864;2023-04-25T01:57:13;4.38;;;1.00;;
71351;SDS011;59159;51.652;4.864;2023-04-25T01:59:40;4.90;;;0.90;;
71351;SDS011;59159;51.652;4.864;2023-04-25T02:02:06;6.23;;;1.03;;
71351;SDS011;59159;51.652;4.864;2023-04-25T02:04:32;4.40;;;1.00;;
71351;SDS011;59159;51.652;4.864;2023-04-25T02:06:58;5.72;;;1.58;;
71351;SDS011;59159;51.652;4.864;2023-04-25T02:09:24;4.77;;;1.00;;
71351;SDS011;59159;51.652;4.864;2023-04-25T02:11:50;5.68;;;1.15;;
71351;SDS011;59159;51.652;4.864;2023-04-25T02:14:16;5.65;;;1.30;;
71351;SDS011;59159;51.652;4.864;2023-04-25T02:16:42;4.55;;;1.27;;
71351;SDS011;59159;51.652;4.864;2023-04-25T02:19:09;4.50;;;1.13;;
71351;SDS011;59159;51.652;4.864;2023-04-25T02:21:35;5.03;;;0.95;;
71351;SDS011;59159;51.652;4.864;2023-04-25T02:24:01;6.32;;;1.27;;
71351;SDS011;59159;51.652;4.864;2023-04-25T02:26:27;5.47;;;1.13;;
71351;SDS011;59159;51.652;4.864;2023-04-25T02:28:53;3.88;;;0.95;;
71351;SDS011;59159;51.652;4.864;2023-04-25T02:31:20;5.13;;;0.93;;
71351;SDS011;59159;51.652;4.864;2023-04-25T02:33:46;6.50;;;1.83;;
71351;SDS011;59159;51.652;4.864;2023-04-25T02:36:12;4.13;;;1.13;;
71351;SDS011;59159;51.652;4.864;2023-04-25T02:38:38;5.43;;;1.30;;
71351;SDS011;59159;51.652;4.864;2023-04-25T02:41:04;5.47;;;1.30;;
71351;SDS011;59159;51.652;4.864;2023-04-25T02:43:30;6.33;;;1.43;;
71351;SDS011;59159;51.652;4.864;2023-04-25T02:45:56;4.80;;;1.20;;
71351;SDS011;59159;51.652;4.864;2023-04-25T02:48:22;4.63;;;1.10;;
71351;SDS011;59159;51.652;4.864;2023-04-25T02:50:48;5.70;;;1.47;;
71351;SDS011;59159;51.652;4.864;2023-04-25T02:53:14;5.47;;;1.17;;
71351;SDS011;59159;51.652;4.864;2023-04-25T02:55:40;6.80;;;1.45;;
71351;SDS011;59159;51.652;4.864;2023-04-25T02:58:06;6.63;;;1.47;;
71351;SDS011;59159;51.652;4.864;2023-04-25T03:00:33;4.95;;;1.30;;
71351;SDS011;59159;51.652;4.864;2023-04-25T03:02:59;6.65;;;1.20;;
71351;SDS011;59159;51.652;4.864;2023-04-25T03:05:25;6.00;;;1.70;;
71351;SDS011;59159;51.652;4.864;2023-04-25T03:07:51;7.00;;;1.50;;
71351;SDS011;59159;51.652;4.864;2023-04-25T03:10:17;5.07;;;1.35;;
71351;SDS011;59159;51.652;4.864;2023-04-25T03:12:43;4.97;;;1.13;;
71351;SDS011;59159;51.652;4.864;2023-04-25T03:15:09;5.97;;;1.33;;
71351;SDS011;59159;51.652;4.864;2023-04-25T03:17:35;5.55;;;1.75;;
71351;SDS011;59159;51.652;4.864;2023-04-25T03:20:01;5.63;;;1.35;;
71351;SDS011;59159;51.652;4.864;2023-04-25T03:22:29;5.67;;;1.40;;
71351;SDS011;59159;51.652;4.864;2023-04-25T03:24:55;5.97;;;1.20;;
71351;SDS011;59159;51.652;4.864;2023-04-25T03:27:20;6.45;;;1.35;;
71351;SDS011;59159;51.652;4.864;2023-04-25T03:29:47;6.55;;;1.30;;
71351;SDS011;59159;51.652;4.864;2023-04-25T03:32:13;4.50;;;1.10;;
71351;SDS011;59159;51.652;4.864;2023-04-25T03:34:39;5.47;;;1.13;;
71351;SDS011;59159;51.652;4.864;2023-04-25T03:37:05;5.75;;;1.13;;
71351;SDS011;59159;51.652;4.864;2023-04-25T03:39:31;4.83;;;0.93;;
71351;SDS011;59159;51.652;4.864;2023-04-25T03:41:57;5.50;;;1.20;;
71351;SDS011;59159;51.652;4.864;2023-04-25T03:44:23;5.40;;;1.17;;
71351;SDS011;59159;51.652;4.864;2023-04-25T03:46:49;4.33;;;1.07;;
71351;SDS011;59159;51.652;4.864;2023-04-25T03:49:16;4.43;;;1.23;;
71351;SDS011;59159;51.652;4.864;2023-04-25T03:51:42;6.63;;;1.50;;
71351;SDS011;59159;51.652;4.864;2023-04-25T03:54:08;5.53;;;1.00;;
71351;SDS011;59159;51.652;4.864;2023-04-25T03:56:34;7.23;;;1.70;;
71351;SDS011;59159;51.652;4.864;2023-04-25T03:59:00;6.82;;;1.30;;
71351;SDS011;59159;51.652;4.864;2023-04-25T04:01:26;7.13;;;1.35;;
71351;SDS011;59159;51.652;4.864;2023-04-25T04:03:52;5.33;;;1.30;;
71351;SDS011;59159;51.652;4.864;2023-04-25T04:06:18;7.22;;;1.30;;
71351;SDS011;59159;51.652;4.864;2023-04-25T04:08:45;6.60;;;1.08;;
71351;SDS011;59159;51.652;4.864;2023-04-25T04:11:11;7.43;;;1.40;;
71351;SDS011;59159;51.652;4.864;2023-04-25T04:13:37;8.75;;;1.95;;
71351;SDS011;59159;51.652;4.864;2023-04-25T04:16:03;6.97;;;1.50;;
71351;SDS011;59159;51.652;4.864;2023-04-25T04:18:30;6.30;;;1.48;;
71351;SDS011;59159;51.652;4.864;2023-04-25T04:20:56;7.97;;;2.23;;
71351;SDS011;59159;51.652;4.864;2023-04-25T04:23:23;6.80;;;1.70;;
71351;SDS011;59159;51.652;4.864;2023-04-25T04:25:49;6.13;;;1.52;;
71351;SDS011;59159;51.652;4.864;2023-04-25T04:28:15;6.67;;;1.77;;
71351;SDS011;59159;51.652;4.864;2023-04-25T04:30:42;6.32;;;1.50;;
71351;SDS011;59159;51.652;4.864;2023-04-25T04:33:11;6.30;;;1.45;;
71351;SDS011;59159;51.652;4.864;2023-04-25T04:35:37;6.17;;;1.23;;
71351;SDS011;59159;51.652;4.864;2023-04-25T04:38:03;7.38;;;1.52;;
71351;SDS011;59159;51.652;4.864;2023-04-25T04:40:29;8.88;;;1.60;;
71351;SDS011;59159;51.652;4.864;2023-04-25T04:42:56;5.43;;;1.50;;
71351;SDS011;59159;51.652;4.864;2023-04-25T04:45:22;5.43;;;0.90;;
71351;SDS011;59159;51.652;4.864;2023-04-25T04:47:48;9.85;;;1.60;;
71351;SDS011;59159;51.652;4.864;2023-04-25T04:50:15;6.72;;;1.35;;
71351;SDS011;59159;51.652;4.864;2023-04-25T04:52:41;5.03;;;1.10;;
71351;SDS011;59159;51.652;4.864;2023-04-25T04:55:07;4.72;;;1.20;;
71351;SDS011;59159;51.652;4.864;2023-04-25T04:57:34;5.10;;;1.30;;
71351;SDS011;59159;51.652;4.864;2023-04-25T05:00:00;5.53;;;1.23;;
71351;SDS011;59159;51.652;4.864;2023-04-25T05:02:29;4.78;;;1.10;;
71351;SDS011;59159;51.652;4.864;2023-04-25T05:04:55;5.53;;;1.20;;
71351;SDS011;59159;51.652;4.864;2023-04-25T05:07:22;5.10;;;1.23;;
71351;SDS011;59159;51.652;4.864;2023-04-25T05:09:48;5.47;;;1.20;;
71351;SDS011;59159;51.652;4.864;2023-04-25T05:12:14;5.65;;;1.10;;
71351;SDS011;59159;51.652;4.864;2023-04-25T05:14:40;5.97;;;1.02;;
71351;SDS011;59159;51.652;4.864;2023-04-25T05:17:05;3.63;;;0.90;;
71351;SDS011;59159;51.652;4.864;2023-04-25T05:19:33;4.80;;;0.93;;
71351;SDS011;59159;51.652;4.864;2023-04-25T05:21:59;5.78;;;1.20;;
71351;SDS011;59159;51.652;4.864;2023-04-25T05:24:25;3.63;;;1.07;;
71351;SDS011;59159;51.652;4.864;2023-04-25T05:26:51;5.15;;;0.93;;
71351;SDS011;59159;51.652;4.864;2023-04-25T05:29:18;3.97;;;1.13;;
71351;SDS011;59159;51.652;4.864;2023-04-25T05:31:44;4.93;;;0.77;;
71351;SDS011;59159;51.652;4.864;2023-04-25T05:34:10;3.93;;;0.93;;
71351;SDS011;59159;51.652;4.864;2023-04-25T05:36:36;3.22;;;0.90;;
71351;SDS011;59159;51.652;4.864;2023-04-25T05:39:02;4.93;;;0.90;;
71351;SDS011;59159;51.652;4.864;2023-04-25T05:41:29;4.60;;;0.60;;
71351;SDS011;59159;51.652;4.864;2023-04-25T05:43:55;4.97;;;0.90;;
71351;SDS011;59159;51.652;4.864;2023-04-25T05:46:21;4.40;;;0.80;;
71351;SDS011;59159;51.652;4.864;2023-04-25T05:48:47;4.43;;;0.90;;
71351;SDS011;59159;51.652;4.864;2023-04-25T05:51:13;3.78;;;0.85;;
71351;SDS011;59159;51.652;4.864;2023-04-25T05:53:39;5.05;;;1.00;;
71351;SDS011;59159;51.652;4.864;2023-04-25T05:56:05;3.90;;;0.95;;
71351;SDS011;59159;51.652;4.864;2023-04-25T05:58:31;4.03;;;0.80;;
71351;SDS011;59159;51.652;4.864;2023-04-25T06:00:57;3.25;;;0.88;;
71351;SDS011;59159;51.652;4.864;2023-04-25T06:03:23;4.30;;;0.80;;
71351;SDS011;59159;51.652;4.864;2023-04-25T06:05:49;3.57;;;0.90;;
71351;SDS011;59159;51.652;4.864;2023-04-25T06:08:15;5.85;;;0.90;;
71351;SDS011;59159;51.652;4.864;2023-04-25T06:10:41;4.07;;;0.80;;
71351;SDS011;59159;51.652;4.864;2023-04-25T06:13:07;4.13;;;1.00;;
71351;SDS011;59159;51.652;4.864;2023-04-25T06:15:33;4.68;;;0.90;;
71351;SDS011;59159;51.652;4.864;2023-04-25T06:17:59;4.03;;;1.00;;
71351;SDS011;59159;51.652;4.864;2023-04-25T06:20:26;4.82;;;1.00;;
71351;SDS011;59159;51.652;4.864;2023-04-25T06:22:52;3.70;;;1.00;;
71351;SDS011;59159;51.652;4.864;2023-04-25T06:25:18;4.32;;;1.10;;
71351;SDS011;59159;51.652;4.864;2023-04-25T06:27:44;4.40;;;0.85;;
71351;SDS011;59159;51.652;4.864;2023-04-25T06:30:10;2.60;;;0.90;;
71351;SDS011;59159;51.652;4.864;2023-04-25T06:32:37;4.85;;;0.77;;
71351;SDS011;59159;51.652;4.864;2023-04-25T06:35:03;3.88;;;0.80;;
71351;SDS011;59159;51.652;4.864;2023-04-25T06:37:29;3.30;;;0.80;;
71351;SDS011;59159;51.652;4.864;2023-04-25T06:39:55;2.67;;;0.68;;
71351;SDS011;59159;51.652;4.864;2023-04-25T06:42:21;4.25;;;0.80;;
71351;SDS011;59159;51.652;4.864;2023-04-25T06:44:47;6.05;;;1.25;;
71351;SDS011;59159;51.652;4.864;2023-04-25T06:47:13;5.47;;;0.93;;
71351;SDS011;59159;51.652;4.864;2023-04-25T06:49:39;8.07;;;1.10;;
71351;SDS011;59159;51.652;4.864;2023-04-25T06:52:05;3.45;;;0.65;;
71351;SDS011;59159;51.652;4.864;2023-04-25T06:54:31;4.67;;;0.90;;
71351;SDS011;59159;51.652;4.864;2023-04-25T06:56:57;4.07;;;1.08;;
71351;SDS011;59159;51.652;4.864;2023-04-25T06:59:25;3.42;;;0.75;;
71351;SDS011;59159;51.652;4.864;2023-04-25T07:01:51;4.73;;;1.07;;
71351;SDS011;59159;51.652;4.864;2023-04-25T07:04:17;3.30;;;0.80;;
71351;SDS011;59159;51.652;4.864;2023-04-25T07:06:43;3.88;;;1.10;;
71351;SDS011;59159;51.652;4.864;2023-04-25T07:09:10;4.78;;;0.93;;
71351;SDS011;59159;51.652;4.864;2023-04-25T07:11:36;4.23;;;0.80;;
71351;SDS011;59159;51.652;4.864;2023-04-25T07:14:02;3.95;;;0.90;;
71351;SDS011;59159;51.652;4.864;2023-04-25T07:16:28;6.60;;;1.08;;
71351;SDS011;59159;51.652;4.864;2023-04-25T07:18:54;3.67;;;0.80;;
71351;SDS011;59159;51.652;4.864;2023-04-25T07:21:20;4.93;;;0.90;;
71351;SDS011;59159;51.652;4.864;2023-04-25T07:23:46;3.70;;;0.70;;
71351;SDS011;59159;51.652;4.864;2023-04-25T07:26:13;4.47;;;1.00;;
71351;SDS011;59159;51.652;4.864;2023-04-25T07:28:39;4.43;;;0.90;;
71351;SDS011;59159;51.652;4.864;2023-04-25T07:31:05;3.55;;;0.70;;
71351;SDS011;59159;51.652;4.864;2023-04-25T07:33:31;4.22;;;0.73;;
71351;SDS011;59159;51.652;4.864;2023-04-25T07:35:57;5.17;;;1.53;;
71351;SDS011;59159;51.652;4.864;2023-04-25T07:38:23;4.05;;;0.90;;
71351;SDS011;59159;51.652;4.864;2023-04-25T07:40:49;4.30;;;0.80;;
71351;SDS011;59159;51.652;4.864;2023-04-25T07:43:15;3.47;;;0.60;;
71351;SDS011;59159;51.652;4.864;2023-04-25T07:45:45;4.35;;;0.70;;
71351;SDS011;59159;51.652;4.864;2023-04-25T07:48:11;8.07;;;1.13;;
71351;SDS011;59159;51.652;4.864;2023-04-25T07:50:37;5.00;;;0.70;;
71351;SDS011;59159;51.652;4.864;2023-04-25T07:53:03;5.22;;;1.17;;
71351;SDS011;59159;51.652;4.864;2023-04-25T07:55:29;3.47;;;0.90;;
71351;SDS011;59159;51.652;4.864;2023-04-25T07:57:55;3.42;;;0.80;;
71351;SDS011;59159;51.652;4.864;2023-04-25T08:00:21;4.17;;;0.80;;
71351;SDS011;59159;51.652;4.864;2023-04-25T08:02:47;3.33;;;0.70;;
71351;SDS011;59159;51.652;4.864;2023-04-25T08:05:13;2.90;;;0.70;;
71351;SDS011;59159;51.652;4.864;2023-04-25T08:07:40;3.50;;;0.80;;
71351;SDS011;59159;51.652;4.864;2023-04-25T08:10:07;3.13;;;0.85;;
71351;SDS011;59159;51.652;4.864;2023-04-25T08:12:33;5.25;;;1.30;;
71351;SDS011;59159;51.652;4.864;2023-04-25T08:14:59;3.50;;;1.03;;
71351;SDS011;59159;51.652;4.864;2023-04-25T08:17:25;3.58;;;1.05;;
71351;SDS011;59159;51.652;4.864;2023-04-25T08:19:51;3.90;;;1.42;;
71351;SDS011;59159;51.652;4.864;2023-04-25T08:22:17;4.85;;;0.80;;
71351;SDS011;59159;51.652;4.864;2023-04-25T08:24:43;3.70;;;0.70;;
71351;SDS011;59159;51.652;4.864;2023-04-25T08:27:09;3.33;;;0.80;;
71351;SDS011;59159;51.652;4.864;2023-04-25T08:29:36;3.15;;;0.60;;
71351;SDS011;59159;51.652;4.864;2023-04-25T08:32:02;2.30;;;0.60;;
71351;SDS011;59159;51.652;4.864;2023-04-25T08:34:28;3.60;;;0.63;;
71351;SDS011;59159;51.652;4.864;2023-04-25T08:36:54;3.90;;;0.63;;
71351;SDS011;59159;51.652;4.864;2023-04-25T08:39:20;3.37;;;0.87;;
71351;SDS011;59159;51.652;4.864;2023-04-25T08:41:46;3.72;;;0.80;;
71351;SDS011;59159;51.652;4.864;2023-04-25T08:44:13;3.35;;;0.73;;
71351;SDS011;59159;51.652;4.864;2023-04-25T08:46:40;3.58;;;1.08;;
71351;SDS011;59159;51.652;4.864;2023-04-25T08:49:06;2.10;;;0.50;;
71351;SDS011;59159;51.652;4.864;2023-04-25T08:51:34;3.17;;;0.73;;
71351;SDS011;59159;51.652;4.864;2023-04-25T08:54:11;4.03;;;0.93;;
71351;SDS011;59159;51.652;4.864;2023-04-25T08:56:43;3.90;;;0.60;;
71351;SDS011;59159;51.652;4.864;2023-04-25T08:59:10;3.90;;;0.63;;
71351;SDS011;59159;51.652;4.864;2023-04-25T09:01:36;3.65;;;0.73;;
71351;SDS011;59159;51.652;4.864;2023-04-25T09:04:02;3.27;;;0.70;;
71351;SDS011;59159;51.652;4.864;2023-04-25T09:06:29;2.47;;;0.68;;
71351;SDS011;59159;51.652;4.864;2023-04-25T09:09:01;3.47;;;0.70;;
71351;SDS011;59159;51.652;4.864;2023-04-25T09:11:27;4.00;;;0.88;;
71351;SDS011;59159;51.652;4.864;2023-04-25T09:14:09;2.87;;;0.53;;
71351;SDS011;59159;51.652;4.864;2023-04-25T09:16:35;2.80;;;0.70;;
71351;SDS011;59159;51.652;4.864;2023-04-25T09:19:01;2.67;;;0.65;;
71351;SDS011;59159;51.652;4.864;2023-04-25T09:21:27;3.43;;;0.97;;
71351;SDS011;59159;51.652;4.864;2023-04-25T09:23:55;3.22;;;0.80;;
71351;SDS011;59159;51.652;4.864;2023-04-25T09:26:23;4.43;;;0.85;;
71351;SDS011;59159;51.652;4.864;2023-04-25T09:29:04;2.57;;;0.60;;
71351;SDS011;59159;51.652;4.864;2023-04-25T09:31:31;3.95;;;0.70;;
71351;SDS011;59159;51.652;4.864;2023-04-25T09:33:59;2.63;;;0.70;;
71351;SDS011;59159;51.652;4.864;2023-04-25T09:36:30;2.58;;;0.70;;
71351;SDS011;59159;51.652;4.864;2023-04-25T09:38:57;2.70;;;0.60;;
71351;SDS011;59159;51.652;4.864;2023-04-25T09:41:26;3.08;;;0.57;;
71351;SDS011;59159;51.652;4.864;2023-04-25T09:43:51;3.00;;;0.60;;
71351;SDS011;59159;51.652;4.864;2023-04-25T09:46:22;3.93;;;0.50;;
71351;SDS011;59159;51.652;4.864;2023-04-25T09:48:50;4.43;;;0.57;;
71351;SDS011;59159;51.652;4.864;2023-04-25T09:51:18;2.75;;;0.70;;
71351;SDS011;59159;51.652;4.864;2023-04-25T09:53:45;2.97;;;0.50;;
71351;SDS011;59159;51.652;4.864;2023-04-25T09:56:11;3.15;;;0.65;;
71351;SDS011;59159;51.652;4.864;2023-04-25T09:58:39;4.65;;;0.80;;
71351;SDS011;59159;51.652;4.864;2023-04-25T10:01:06;3.15;;;1.10;;
71351;SDS011;59159;51.652;4.864;2023-04-25T10:03:33;3.43;;;0.70;;
71351;SDS011;59159;51.652;4.864;2023-04-25T10:06:00;3.63;;;0.80;;
71351;SDS011;59159;51.652;4.864;2023-04-25T10:08:34;3.25;;;0.63;;
71351;SDS011;59159;51.652;4.864;2023-04-25T10:11:01;3.60;;;0.60;;
71351;SDS011;59159;51.652;4.864;2023-04-25T10:13:31;2.75;;;0.60;;
71351;SDS011;59159;51.652;4.864;2023-04-25T10:16:04;3.70;;;0.70;;
71351;SDS011;59159;51.652;4.864;2023-04-25T10:18:31;3.47;;;0.70;;
71351;SDS011;59159;51.652;4.864;2023-04-25T10:20:58;2.63;;;0.60;;
71351;SDS011;59159;51.652;4.864;2023-04-25T10:23:24;2.05;;;0.70;;
71351;SDS011;59159;51.652;4.864;2023-04-25T10:25:51;2.55;;;0.50;;
71351;SDS011;59159;51.652;4.864;2023-04-25T10:28:17;3.00;;;0.70;;
71351;SDS011;59159;51.652;4.864;2023-04-25T10:31:00;4.45;;;0.60;;
71351;SDS011;59159;51.652;4.864;2023-04-25T10:33:34;3.08;;;0.50;;
71351;SDS011;59159;51.652;4.864;2023-04-25T10:36:12;3.23;;;0.90;;
71351;SDS011;59159;51.652;4.864;2023-04-25T10:38:39;2.50;;;0.60;;
71351;SDS011;59159;51.652;4.864;2023-04-25T10:41:05;3.10;;;0.50;;
71351;SDS011;59159;51.652;4.864;2023-04-25T10:45:59;2.65;;;0.60;;
71351;SDS011;59159;51.652;4.864;2023-04-25T10:48:26;3.50;;;0.85;;
71351;SDS011;59159;51.652;4.864;2023-04-25T10:51:08;3.55;;;0.70;;
71351;SDS011;59159;51.652;4.864;2023-04-25T10:53:34;2.43;;;0.50;;
71351;SDS011;59159;51.652;4.864;2023-04-25T10:56:00;4.22;;;0.82;;
71351;SDS011;59159;51.652;4.864;2023-04-25T10:58:26;4.35;;;0.90;;
71351;SDS011;59159;51.652;4.864;2023-04-25T11:00:52;1.83;;;0.50;;
71351;SDS011;59159;51.652;4.864;2023-04-25T11:03:20;2.85;;;0.70;;
71351;SDS011;59159;51.652;4.864;2023-04-25T11:05:48;3.72;;;0.70;;
71351;SDS011;59159;51.652;4.864;2023-04-25T11:08:15;3.53;;;0.60;;
71351;SDS011;59159;51.652;4.864;2023-04-25T11:10:46;3.90;;;0.52;;
71351;SDS011;59159;51.652;4.864;2023-04-25T11:13:12;3.35;;;0.50;;
71351;SDS011;59159;51.652;4.864;2023-04-25T11:15:39;2.58;;;0.50;;
71351;SDS011;59159;51.652;4.864;2023-04-25T11:18:05;1.80;;;0.40;;
71351;SDS011;59159;51.652;4.864;2023-04-25T11:20:31;3.08;;;0.47;;
71351;SDS011;59159;51.652;4.864;2023-04-25T11:22:57;1.85;;;0.50;;
71351;SDS011;59159;51.652;4.864;2023-04-25T11:25:26;3.93;;;0.63;;
71351;SDS011;59159;51.652;4.864;2023-04-25T11:27:54;3.25;;;0.70;;
71351;SDS011;59159;51.652;4.864;2023-04-25T11:30:21;2.10;;;0.63;;
71351;SDS011;59159;51.652;4.864;2023-04-25T11:32:47;3.23;;;0.60;;
71351;SDS011;59159;51.652;4.864;2023-04-25T11:35:13;2.72;;;0.60;;
71351;SDS011;59159;51.652;4.864;2023-04-25T11:37:40;3.33;;;0.70;;
71351;SDS011;59159;51.652;4.864;2023-04-25T11:40:07;3.50;;;0.77;;
71351;SDS011;59159;51.652;4.864;2023-04-25T11:42:34;3.80;;;0.50;;
71351;SDS011;59159;51.652;4.864;2023-04-25T11:45:02;3.35;;;1.15;;
71351;SDS011;59159;51.652;4.864;2023-04-25T11:47:31;2.30;;;0.50;;
71351;SDS011;59159;51.652;4.864;2023-04-25T11:50:01;2.90;;;0.60;;
71351;SDS011;59159;51.652;4.864;2023-04-25T11:52:44;3.55;;;0.60;;
71351;SDS011;59159;51.652;4.864;2023-04-25T11:57:39;5.10;;;0.70;;
71351;SDS011;59159;51.652;4.864;2023-04-25T12:02:34;3.92;;;0.50;;
71351;SDS011;59159;51.652;4.864;2023-04-25T12:05:00;3.45;;;1.00;;
71351;SDS011;59159;51.652;4.864;2023-04-25T12:07:31;3.77;;;0.73;;
71351;SDS011;59159;51.652;4.864;2023-04-25T12:09:57;2.28;;;0.47;;
71351;SDS011;59159;51.652;4.864;2023-04-25T12:12:32;3.17;;;0.70;;
71351;SDS011;59159;51.652;4.864;2023-04-25T12:15:07;2.80;;;0.50;;
71351;SDS011;59159;51.652;4.864;2023-04-25T12:17:34;3.05;;;0.60;;
71351;SDS011;59159;51.652;4.864;2023-04-25T12:20:06;4.63;;;0.60;;
71351;SDS011;59159;51.652;4.864;2023-04-25T12:22:33;3.10;;;0.80;;
71351;SDS011;59159;51.652;4.864;2023-04-25T12:24:59;2.33;;;0.50;;
71351;SDS011;59159;51.652;4.864;2023-04-25T12:27:25;2.78;;;0.50;;
71351;SDS011;59159;51.652;4.864;2023-04-25T12:29:53;2.85;;;0.55;;
71351;SDS011;59159;51.652;4.864;2023-04-25T12:32:19;3.57;;;0.57;;
71351;SDS011;59159;51.652;4.864;2023-04-25T12:34:45;3.17;;;0.52;;
71351;SDS011;59159;51.652;4.864;2023-04-25T12:37:12;3.25;;;0.50;;
71351;SDS011;59159;51.652;4.864;2023-04-25T12:39:38;2.90;;;0.70;;
71351;SDS011;59159;51.652;4.864;2023-04-25T12:42:04;3.78;;;0.50;;
71351;SDS011;59159;51.652;4.864;2023-04-25T12:44:32;3.05;;;0.50;;
71351;SDS011;59159;51.652;4.864;2023-04-25T12:46:58;1.90;;;0.47;;
71351;SDS011;59159;51.652;4.864;2023-04-25T12:49:25;3.08;;;0.52;;
71351;SDS011;59159;51.652;4.864;2023-04-25T12:51:51;3.40;;;1.15;;
71351;SDS011;59159;51.652;4.864;2023-04-25T12:54:17;3.25;;;0.80;;
71351;SDS011;59159;51.652;4.864;2023-04-25T12:56:43;2.27;;;0.60;;
71351;SDS011;59159;51.652;4.864;2023-04-25T12:59:09;2.63;;;0.52;;
71351;SDS011;59159;51.652;4.864;2023-04-25T13:01:35;3.05;;;0.50;;
71351;SDS011;59159;51.652;4.864;2023-04-25T13:04:02;2.40;;;0.40;;
71351;SDS011;59159;51.652;4.864;2023-04-25T13:06:28;2.67;;;0.60;;
71351;SDS011;59159;51.652;4.864;2023-04-25T13:08:57;2.47;;;0.55;;
71351;SDS011;59159;51.652;4.864;2023-04-25T13:11:23;3.10;;;0.50;;
71351;SDS011;59159;51.652;4.864;2023-04-25T13:13:49;3.47;;;0.70;;
71351;SDS011;59159;51.652;4.864;2023-04-25T13:16:15;3.22;;;0.50;;
71351;SDS011;59159;51.652;4.864;2023-04-25T13:18:41;2.70;;;0.60;;
71351;SDS011;59159;51.652;4.864;2023-04-25T13:21:08;3.03;;;0.50;;
71351;SDS011;59159;51.652;4.864;2023-04-25T13:23:35;2.03;;;0.47;;
71351;SDS011;59159;51.652;4.864;2023-04-25T13:26:01;2.78;;;0.57;;
71351;SDS011;59159;51.652;4.864;2023-04-25T13:28:27;4.50;;;0.50;;
71351;SDS011;59159;51.652;4.864;2023-04-25T13:30:53;2.97;;;0.60;;
71351;SDS011;59159;51.652;4.864;2023-04-25T13:33:20;2.63;;;0.60;;
71351;SDS011;59159;51.652;4.864;2023-04-25T13:35:47;1.53;;;0.40;;
71351;SDS011;59159;51.652;4.864;2023-04-25T13:38:19;4.22;;;0.60;;
71351;SDS011;59159;51.652;4.864;2023-04-25T13:40:45;3.30;;;0.77;;
71351;SDS011;59159;51.652;4.864;2023-04-25T13:43:11;2.85;;;0.52;;
71351;SDS011;59159;51.652;4.864;2023-04-25T13:45:37;2.03;;;0.50;;
71351;SDS011;59159;51.652;4.864;2023-04-25T13:48:03;3.63;;;0.60;;
71351;SDS011;59159;51.652;4.864;2023-04-25T13:50:29;3.00;;;0.60;;
71351;SDS011;59159;51.652;4.864;2023-04-25T13:52:55;4.30;;;0.60;;
71351;SDS011;59159;51.652;4.864;2023-04-25T13:55:21;2.20;;;0.50;;
71351;SDS011;59159;51.652;4.864;2023-04-25T13:57:47;3.53;;;0.60;;
71351;SDS011;59159;51.652;4.864;2023-04-25T14:00:13;3.87;;;0.80;;
71351;SDS011;59159;51.652;4.864;2023-04-25T14:02:39;3.97;;;0.68;;
71351;SDS011;59159;51.652;4.864;2023-04-25T14:05:06;3.17;;;0.60;;
71351;SDS011;59159;51.652;4.864;2023-04-25T14:07:36;2.92;;;0.60;;
71351;SDS011;59159;51.652;4.864;2023-04-25T14:10:02;3.97;;;0.50;;
71351;SDS011;59159;51.652;4.864;2023-04-25T14:12:29;3.83;;;0.80;;
71351;SDS011;59159;51.652;4.864;2023-04-25T14:14:55;3.97;;;0.80;;
71351;SDS011;59159;51.652;4.864;2023-04-25T14:17:21;4.07;;;1.20;;
71351;SDS011;59159;51.652;4.864;2023-04-25T14:19:49;4.60;;;0.95;;
71351;SDS011;59159;51.652;4.864;2023-04-25T14:22:15;3.90;;;0.70;;
71351;SDS011;59159;51.652;4.864;2023-04-25T14:24:41;4.07;;;0.60;;
71351;SDS011;59159;51.652;4.864;2023-04-25T14:27:07;5.65;;;1.25;;
71351;SDS011;59159;51.652;4.864;2023-04-25T14:29:33;3.90;;;1.08;;
71351;SDS011;59159;51.652;4.864;2023-04-25T14:31:59;5.53;;;0.80;;
71351;SDS011;59159;51.652;4.864;2023-04-25T14:34:25;4.70;;;0.93;;
71351;SDS011;59159;51.652;4.864;2023-04-25T14:36:52;2.65;;;0.63;;
71351;SDS011;59159;51.652;4.864;2023-04-25T14:39:18;5.32;;;1.15;;
71351;SDS011;59159;51.652;4.864;2023-04-25T14:41:44;5.80;;;0.87;;
71351;SDS011;59159;51.652;4.864;2023-04-25T14:44:10;4.68;;;0.98;;
71351;SDS011;59159;51.652;4.864;2023-04-25T14:46:36;6.05;;;1.10;;
71351;SDS011;59159;51.652;4.864;2023-04-25T14:49:03;4.27;;;0.90;;
71351;SDS011;59159;51.652;4.864;2023-04-25T14:51:29;5.68;;;1.00;;
71351;SDS011;59159;51.652;4.864;2023-04-25T14:53:56;6.65;;;0.90;;